createdAt,value
2022-10-05T00:03:17.548Z,11.91
2022-10-05T00:08:21.914Z,11.87
2022-10-05T00:13:25.306Z,11.85
2022-10-05T00:18:27.041Z,11.85
2022-10-05T00:23:30.860Z,11.80
2022-10-05T00:28:32.540Z,11.76
2022-10-05T00:33:34.200Z,11.73
2022-10-05T00:38:35.920Z,11.77
2022-10-05T00:44:01.993Z,11.74
2022-10-05T00:49:13.201Z,11.74
2022-10-05T00:54:24.134Z,11.72
2022-10-05T00:59:41.462Z,11.70
2022-10-05T01:05:12.362Z,11.70
2022-10-05T01:10:19.465Z,11.70
2022-10-05T01:15:32.857Z,11.69
2022-10-05T01:20:51.287Z,11.70
2022-10-05T01:26:01.962Z,11.72
2022-10-05T01:31:38.210Z,11.73
2022-10-05T01:36:45.767Z,11.77
2022-10-05T01:42:08.730Z,11.79
2022-10-05T01:47:24.074Z,11.80
2022-10-05T01:52:59.089Z,11.82
2022-10-05T01:58:12.586Z,11.85
2022-10-05T02:03:18.654Z,11.86
2022-10-05T02:08:37.945Z,11.90
2022-10-05T02:13:50.761Z,11.89
2022-10-05T02:19:03.428Z,11.96
2022-10-05T02:24:08.923Z,11.98
2022-10-05T02:29:11.680Z,11.99
2022-10-05T02:34:27.534Z,11.99
2022-10-05T02:40:14.055Z,12.01
2022-10-05T02:45:34.549Z,12.00
2022-10-05T02:50:53.717Z,11.98
2022-10-05T02:56:05.507Z,11.99
2022-10-05T03:01:30.703Z,12.01
2022-10-05T03:06:40.413Z,12.04
2022-10-05T03:12:00.878Z,12.06
2022-10-05T03:17:18.152Z,12.06
2022-10-05T03:22:30.300Z,12.09
2022-10-05T03:27:45.408Z,12.09
2022-10-05T03:32:58.693Z,12.12
2022-10-05T03:38:20.672Z,12.13
2022-10-05T03:43:57.670Z,12.16
2022-10-05T03:49:18.099Z,12.14
2022-10-05T03:54:36.088Z,12.13
2022-10-05T04:00:07.270Z,12.14
2022-10-05T04:05:35.857Z,12.15
2022-10-05T04:10:51.546Z,12.14
2022-10-05T04:16:13.288Z,12.15
2022-10-05T04:21:31.421Z,12.16
2022-10-05T04:26:43.640Z,12.15
2022-10-05T04:32:01.865Z,12.12
2022-10-05T04:37:06.455Z,12.10
2022-10-05T04:42:09.390Z,12.09
2022-10-05T04:47:32.957Z,12.09
2022-10-05T04:52:53.521Z,12.07
2022-10-05T04:58:16.657Z,12.07
2022-10-05T05:03:30.537Z,12.05
2022-10-05T05:08:53.554Z,12.08
2022-10-05T05:14:01.440Z,12.08
2022-10-05T05:19:06.182Z,12.07
2022-10-05T05:24:20.227Z,12.06
2022-10-05T05:29:34.278Z,12.06
2022-10-05T05:35:14.512Z,12.03
2022-10-05T05:40:23.775Z,12.05
2022-10-05T05:45:41.982Z,12.02
2022-10-05T05:51:03.514Z,12.01
2022-10-05T05:56:07.023Z,12.02
2022-10-05T06:01:33.138Z,12.01
2022-10-05T06:06:39.573Z,12.02
2022-10-05T06:11:46.977Z,12.03
2022-10-05T06:16:51.955Z,12.08
2022-10-05T06:22:08.974Z,12.12
2022-10-05T06:27:17.914Z,12.17
2022-10-05T06:32:56.243Z,12.26
2022-10-05T06:38:35.901Z,12.38
2022-10-05T06:43:48.605Z,12.50
2022-10-05T06:49:30.279Z,12.63
2022-10-05T06:55:03.263Z,12.76
2022-10-05T07:00:17.202Z,12.84
2022-10-05T07:05:34.524Z,12.92
2022-10-05T07:10:48.719Z,12.98
2022-10-05T07:15:54.486Z,13.04
2022-10-05T07:21:19.625Z,13.06
2022-10-05T07:26:41.336Z,13.04
2022-10-05T07:31:48.234Z,13.04
2022-10-05T07:37:21.872Z,13.12
2022-10-05T07:42:52.078Z,13.25
2022-10-05T07:47:59.083Z,13.40
2022-10-05T07:53:19.489Z,13.58
2022-10-05T07:58:47.759Z,13.73
2022-10-05T08:04:14.509Z,13.90
2022-10-05T08:09:26.203Z,14.02
2022-10-05T08:14:46.728Z,14.19
2022-10-05T08:20:16.169Z,14.25
2022-10-05T08:25:22.220Z,14.25
2022-10-05T08:30:23.903Z,14.32
2022-10-05T08:35:40.452Z,14.35
2022-10-05T08:40:54.625Z,14.43
2022-10-05T08:46:26.438Z,14.48
2022-10-05T08:51:30.933Z,14.64
2022-10-05T08:56:35.305Z,14.89
2022-10-05T09:01:45.478Z,15.07
2022-10-05T09:07:17.733Z,15.26
2022-10-05T09:12:42.209Z,15.30
2022-10-05T09:18:06.048Z,15.21
2022-10-05T09:23:15.152Z,15.14
2022-10-05T09:28:37.621Z,15.26
2022-10-05T09:34:07.673Z,15.30
2022-10-05T09:39:41.809Z,15.36
2022-10-05T09:45:21.067Z,15.37
2022-10-05T09:50:38.391Z,15.41
2022-10-05T09:55:50.578Z,15.43
2022-10-05T10:01:08.955Z,15.41
2022-10-05T10:06:51.387Z,15.60
2022-10-05T10:12:11.597Z,15.67
2022-10-05T10:17:47.200Z,15.68
2022-10-05T10:23:12.040Z,15.68
2022-10-05T10:28:30.851Z,15.72
2022-10-05T10:33:35.381Z,15.78
2022-10-05T10:38:41.685Z,15.87
2022-10-05T10:44:22.611Z,15.91
2022-10-05T10:49:45.989Z,15.99
2022-10-05T10:55:15.225Z,16.01
2022-10-05T11:00:42.140Z,16.06
2022-10-05T11:06:07.720Z,16.03
2022-10-05T11:11:14.352Z,16.03
2022-10-05T11:16:19.755Z,16.13
2022-10-05T11:21:37.971Z,16.07
2022-10-05T11:26:45.255Z,16.14
2022-10-05T11:32:04.976Z,16.21
2022-10-05T11:37:10.479Z,16.22
2022-10-05T11:42:33.921Z,16.08
2022-10-05T11:48:01.729Z,16.01
2022-10-05T11:53:07.644Z,16.02
2022-10-05T11:58:19.579Z,15.98
2022-10-05T12:03:45.701Z,15.98
2022-10-05T12:08:57.721Z,16.02
2022-10-05T12:14:21.442Z,16.05
2022-10-05T12:19:28.238Z,16.13
2022-10-05T12:24:35.918Z,16.11
2022-10-05T12:29:44.137Z,16.24
2022-10-05T12:35:03.211Z,16.43
2022-10-05T12:40:08.577Z,16.38
2022-10-05T12:45:31.894Z,16.70
2022-10-05T12:50:34.620Z,17.40
2022-10-05T12:55:48.852Z,18.11
2022-10-05T13:01:22.824Z,18.51
2022-10-05T13:06:36.647Z,18.84
2022-10-05T13:12:07.511Z,19.06
2022-10-05T13:17:41.652Z,18.87
2022-10-05T13:22:43.797Z,18.69
2022-10-05T13:27:56.112Z,18.54
2022-10-05T13:33:02.123Z,18.68
2022-10-05T13:38:22.060Z,18.48
2022-10-05T13:43:52.387Z,18.28
2022-10-05T13:49:16.423Z,18.10
2022-10-05T13:54:46.099Z,18.30
2022-10-05T13:59:55.645Z,18.87
2022-10-05T14:05:02.161Z,19.18
2022-10-05T14:10:07.196Z,19.56
2022-10-05T14:15:32.126Z,19.51
2022-10-05T14:20:35.094Z,19.81
2022-10-05T14:25:50.112Z,20.00
2022-10-05T14:31:15.923Z,19.43
2022-10-05T14:36:33.670Z,18.91
2022-10-05T14:41:35.727Z,18.72
2022-10-05T14:46:39.382Z,18.66
2022-10-05T14:51:42.727Z,18.65
2022-10-05T14:56:53.359Z,18.57
2022-10-05T15:02:18.951Z,18.57
2022-10-05T15:07:26.244Z,18.77
2022-10-05T15:12:32.876Z,19.17
2022-10-05T15:17:39.084Z,19.28
2022-10-05T15:23:12.191Z,19.53
2022-10-05T15:28:33.992Z,19.62
2022-10-05T15:33:45.642Z,19.39
2022-10-05T15:39:01.907Z,19.11
2022-10-05T15:44:26.334Z,19.01
2022-10-05T15:49:42.905Z,19.08
2022-10-05T15:54:55.797Z,19.15
2022-10-05T16:00:04.032Z,18.98
2022-10-05T16:05:07.785Z,18.66
2022-10-05T16:10:23.366Z,18.37
2022-10-05T16:15:37.029Z,18.14
2022-10-05T16:20:45.868Z,17.92
2022-10-05T16:25:58.713Z,17.77
2022-10-05T16:31:37.369Z,17.67
2022-10-05T16:36:47.515Z,17.53
2022-10-05T16:42:05.337Z,17.46
2022-10-05T16:47:34.862Z,17.37
2022-10-05T16:52:37.803Z,17.26
2022-10-05T16:57:41.729Z,17.11
2022-10-05T17:03:02.218Z,16.94
2022-10-05T17:08:44.604Z,16.70
2022-10-05T17:14:36.491Z,16.55
2022-10-05T17:20:06.942Z,16.37
2022-10-05T17:25:24.117Z,16.23
2022-10-05T17:30:48.669Z,16.07
2022-10-05T17:35:53.365Z,15.94
2022-10-05T17:41:23.093Z,15.78
2022-10-05T17:46:48.338Z,15.66
2022-10-05T17:52:14.735Z,15.55
2022-10-05T17:57:23.566Z,15.47
2022-10-05T18:02:43.292Z,15.43
2022-10-05T18:07:49.597Z,15.44
2022-10-05T18:13:20.738Z,15.54
2022-10-05T18:18:35.081Z,15.54
2022-10-05T18:23:36.721Z,15.62
2022-10-05T18:28:47.510Z,15.72
2022-10-05T18:34:27.450Z,15.84
2022-10-05T18:39:40.566Z,15.98
2022-10-05T18:44:45.241Z,16.03
2022-10-05T18:50:03.172Z,16.12
2022-10-05T18:55:20.737Z,16.15
2022-10-05T19:00:23.313Z,16.15
2022-10-05T19:05:48.737Z,16.18
2022-10-05T19:10:55.249Z,16.20
2022-10-05T19:16:18.505Z,16.22
2022-10-05T19:21:26.335Z,16.24
2022-10-05T19:26:46.775Z,16.18
2022-10-05T19:31:52.948Z,16.15
2022-10-05T19:37:18.107Z,16.10
2022-10-05T19:42:52.985Z,16.02
2022-10-05T19:48:07.475Z,16.04
2022-10-05T19:53:12.772Z,16.03
2022-10-05T19:58:17.428Z,16.06
2022-10-05T20:03:23.364Z,16.09
2022-10-05T20:08:28.533Z,16.09
2022-10-05T20:13:33.378Z,16.05
2022-10-05T20:19:02.988Z,16.00
2022-10-05T20:24:14.758Z,15.92
2022-10-05T20:29:16.408Z,15.88
2022-10-05T20:34:18.083Z,15.81
2022-10-05T20:39:21.181Z,15.76
2022-10-05T20:44:52.934Z,15.73
2022-10-05T20:49:57.536Z,15.77
2022-10-05T20:54:59.265Z,15.87
2022-10-05T21:00:00.954Z,16.00
2022-10-05T21:05:04.507Z,16.11
2022-10-05T21:10:06.616Z,16.17
2022-10-05T21:15:10.055Z,16.28
2022-10-05T21:20:12.247Z,16.50
2022-10-05T21:25:13.991Z,16.62
2022-10-05T21:30:15.756Z,16.71
2022-10-05T21:35:17.392Z,16.78
2022-10-05T21:40:19.139Z,16.85
2022-10-05T21:45:20.815Z,16.89
2022-10-05T21:50:22.700Z,16.92
2022-10-05T21:55:24.959Z,16.96
2022-10-05T22:00:26.606Z,16.99
2022-10-05T22:05:28.574Z,16.96
2022-10-05T22:10:30.539Z,16.90
2022-10-05T22:15:32.227Z,16.88
2022-10-05T22:20:34.442Z,16.85
2022-10-05T22:25:36.080Z,16.86
2022-10-05T22:30:37.868Z,16.89
2022-10-05T22:35:39.537Z,16.89
2022-10-05T22:40:41.212Z,16.95
2022-10-05T22:45:42.983Z,16.95
2022-10-05T22:50:45.406Z,16.97
2022-10-05T22:55:47.117Z,17.03
2022-10-05T23:00:58.064Z,17.06
2022-10-05T23:06:04.583Z,17.05
2022-10-05T23:11:14.219Z,17.05
2022-10-05T23:16:17.269Z,17.04
2022-10-05T23:21:19.820Z,17.00
2022-10-05T23:26:23.482Z,17.02
2022-10-05T23:31:26.818Z,16.96
2022-10-05T23:36:32.053Z,16.95
2022-10-05T23:41:34.308Z,16.95
2022-10-05T23:46:35.976Z,16.94
2022-10-05T23:51:37.674Z,16.91
2022-10-05T23:56:39.324Z,16.84
